Time;durP1;ratioP1;P1;durP2;ratioP2;P2;SDS_P1;SDS_P2;PMS_P1;PMS_P2;Temp;Humidity;BMP_temperature;BMP_pressure;BME280_temperature;BME280_humidity;BME280_pressure;Samples;Min_cycle;Max_cycle;Signal;HPM_P1;HPM_P2
2022/05/21 00:00:12;;;;;;;;;;;;;;;;;;1043756;28;3673;-55
2022/05/21 00:00:58;;;;;;;;;;;;;;;;;;1043735;28;4143;-54
2022/05/21 00:01:30;;;;;;;;;;;;;;;;;;1041062;28;3652;-54
2022/05/21 00:02:01;;;;;;;;;;;;;;;;;;1042117;28;3797;-53
2022/05/21 00:02:31;;;;;;;;;;;;;;;;;;1039947;28;3019;-53
2022/05/21 00:03:01;;;;;;;;;;;;;;;;;;1040444;28;4191;-50
2022/05/21 00:03:31;;;;;;;;;;;;;;;;;;1043933;28;2868;-52
2022/05/21 00:04:02;;;;;;;;;;;;;;;;;;1044789;28;4120;-56
2022/05/21 00:04:32;;;;;;;;;;;;;;;;;;1046141;28;1068;-53
2022/05/21 00:05:03;;;;;;;;;;;;;;;;;;1043023;28;4215;-54
2022/05/21 00:05:33;;;;;;;;;;;;;;;;;;1045470;28;3981;-51
2022/05/21 00:06:03;;;;;;;;;;;;;;;;;;1044184;28;3364;-55
2022/05/21 00:06:33;;;;;;;;;;;;;;;;;;1046089;28;4069;-49
2022/05/21 00:07:04;;;;;;;;;;;;;;;;;;1044012;28;4097;-51
2022/05/21 00:07:34;;;;;;;;;;;;;;;;;;1044927;28;3901;-55
2022/05/21 00:08:05;;;;;;;;;;;;;;;;;;1045688;28;3969;-54
2022/05/21 00:08:36;;;;;;;;;;;;;;;;;;1043674;28;4385;-54
2022/05/21 00:09:06;;;;;;;;;;;;;;;;;;1045306;28;2227;-52
2022/05/21 00:09:37;;;;;;;;;;;;;;;;;;1044059;28;3931;-53
2022/05/21 00:10:12;;;;;;;;;;;;;;;;;;1044111;28;3667;-53
2022/05/21 00:10:42;;;;;;;;;;;;;;;;;;1039144;28;3955;-56
2022/05/21 00:11:12;;;;;;;;;;;;;;;;;;1040934;28;1622;-54
2022/05/21 00:11:43;;;;;;;;;;;;;;;;;;1040204;28;3944;-55
2022/05/21 00:12:13;;;;;;;;;;;;;;;;;;1040591;28;1731;-55
2022/05/21 00:12:44;;;;;;;;;;;;;;;;;;1044582;28;4072;-50
2022/05/21 00:13:14;;;;;;;;;;;;;;;;;;1045401;28;1686;-53
2022/05/21 00:13:45;;;;;;;;;;;;;;;;;;1044217;28;4046;-52
2022/05/21 00:14:15;;;;;;;;;;;;;;;;;;1044633;28;3699;-52
2022/05/21 00:14:46;;;;;;;;;;;;;;;;;;1044803;28;3946;-53
2022/05/21 00:15:17;;;;;;;;;;;;;;;;;;1043982;28;3616;-55
2022/05/21 00:15:48;;;;;;;;;;;;;;;;;;1039210;28;4048;-56
2022/05/21 00:16:25;;;;;;;;;;;;;;;;;;1038186;28;3891;-57
2022/05/21 00:16:55;;;;;;;;;;;;;;;;;;1039097;28;4472;-52
2022/05/21 00:17:32;;;;;;;;;;;;;;;;;;1042072;28;2339;-54
2022/05/21 00:18:05;;;;;;;;;;;;;;;;;;1039234;28;4115;-53
2022/05/21 00:18:35;;;;;;;;;;;;;;;;;;1037983;28;4092;-57
2022/05/21 00:19:05;;;;;;;;;;;;;;;;;;1041312;28;3960;-54
2022/05/21 00:19:42;;;;;;;;;;;;;;;;;;1040889;28;3957;-52
2022/05/21 00:21:02;;;;;;;;;;;;;;;;;;1044590;28;4191;-52
2022/05/21 00:21:32;;;;;;;;;;;;;;;;;;1046254;28;1710;-54
2022/05/21 00:22:03;;;;;;;;;;;;;;;;;;1046598;28;3844;-54
2022/05/21 00:22:33;;;;;;;;;;;;;;;;;;1046467;28;4150;-54
2022/05/21 00:23:11;;;;;;;;;;;;;;;;;;1044982;28;3664;-53
2022/05/21 00:23:42;;;;;;;;;;;;;;;;;;1044178;28;4082;-54
2022/05/21 00:24:12;;;;;;;;;;;;;;;;;;1045329;28;2964;-53
2022/05/21 00:24:42;;;;;;;;;;;;;;;;;;1045418;28;3949;-52
2022/05/21 00:25:13;;;;;;;;;;;;;;;;;;1046534;28;1568;-54
2022/05/21 00:25:44;;;;;;;;;;;;;;;;;;1045079;28;4065;-51
2022/05/21 00:26:14;;;;;;;;;;;;;;;;;;1047254;28;1328;-52
2022/05/21 00:26:45;;;;;;;;;;;;;;;;;;1043534;28;3949;-55
2022/05/21 00:27:15;;;;;;;;;;;;;;;;;;1045297;28;4011;-54
2022/05/21 00:27:45;;;;;;;;;;;;;;;;;;1045084;28;4290;-52
2022/05/21 00:28:16;;;;;;;;;;;;;;;;;;1045103;28;2939;-51
2022/05/21 00:28:47;;;;;;;;;;;;;;;;;;1043808;28;3901;-51
2022/05/21 00:29:20;;;;;;;;;;;;;;;;;;1045857;28;4224;-55
2022/05/21 00:29:50;;;;;;;;;;;;;;;;;;1045477;28;4032;-55
2022/05/21 00:30:20;;;;;;;;;;;;;;;;;;1045697;28;4358;-55
2022/05/21 00:30:51;;;;;;;;;;;;;;;;;;1045222;28;4034;-56
2022/05/21 00:31:21;;;;;;;;;;;;;;;;;;1045781;28;2987;-51
2022/05/21 00:31:51;;;;;;;;;;;;;;;;;;1044796;28;4122;-54
2022/05/21 00:32:22;;;;;;;;;;;;;;;;;;1045931;28;3906;-52
2022/05/21 00:32:52;;;;;;;;;;;;;;;;;;1044697;28;4239;-55
2022/05/21 00:33:22;;;;;;;;;;;;;;;;;;1044910;28;3914;-56
2022/05/21 00:33:53;;;;;;;;;;;;;;;;;;1044302;28;4116;-55
2022/05/21 00:34:24;;;;;;;;;;;;;;;;;;1045967;28;2999;-52
2022/05/21 00:34:54;;;;;;;;;;;;;;;;;;1043508;28;4035;-55
2022/05/21 00:35:24;;;;;;;;;;;;;;;;;;1046325;28;3985;-54
2022/05/21 00:35:55;;;;;;;;;;;;;;;;;;1044263;28;3792;-56
2022/05/21 00:36:25;;;;;;;;;;;;;;;;;;1044887;28;2535;-55
2022/05/21 00:36:55;;;;;;;;;;;;;;;;;;1045281;28;3810;-51
2022/05/21 00:37:25;;;;;;;;;;;;;;;;;;1045476;28;3277;-57
2022/05/21 00:37:56;;;;;;;;;;;;;;;;;;1045130;28;4054;-55
2022/05/21 00:38:26;;;;;;;;;;;;;;;;;;1045300;28;2970;-53
2022/05/21 00:39:03;;;;;;;;;;;;;;;;;;1043986;28;4118;-52
2022/05/21 00:39:46;;;;;;;;;;;;;;;;;;1045270;28;4064;-56
2022/05/21 00:40:17;;;;;;;;;;;;;;;;;;1046757;28;1634;-56
2022/05/21 00:40:48;;;;;;;;;;;;;;;;;;1044856;28;3937;-56
2022/05/21 00:41:18;;;;;;;;;;;;;;;;;;1045508;28;4121;-53
2022/05/21 00:41:50;;;;;;;;;;;;;;;;;;1045263;28;4973;-55
2022/05/21 00:42:20;;;;;;;;;;;;;;;;;;1045419;28;3010;-56
2022/05/21 00:42:51;;;;;;;;;;;;;;;;;;1041435;28;4041;-53
2022/05/21 00:43:38;;;;;;;;;;;;;;;;;;1038234;28;3761;-56
2022/05/21 00:44:09;;;;;;;;;;;;;;;;;;1040103;28;4623;-54
2022/05/21 00:44:39;;;;;;;;;;;;;;;;;;1043616;28;3859;-54
2022/05/21 00:45:09;;;;;;;;;;;;;;;;;;1040788;28;3685;-54
2022/05/21 00:45:40;;;;;;;;;;;;;;;;;;1039692;28;4293;-52
2022/05/21 00:46:17;;;;;;;;;;;;;;;;;;1041700;28;3237;-54
2022/05/21 00:46:48;;;;;;;;;;;;;;;;;;1035798;28;3978;-54
2022/05/21 00:47:19;;;;;;;;;;;;;;;;;;1040690;28;2987;-54
2022/05/21 00:47:49;;;;;;;;;;;;;;;;;;1035987;28;4200;-54
2022/05/21 00:48:19;;;;;;;;;;;;;;;;;;1038437;28;3292;-51
2022/05/21 00:48:53;;;;;;;;;;;;;;;;;;1044816;28;3958;-51
2022/05/21 00:49:26;;;;;;;;;;;;;;;;;;1045853;28;3744;-54
2022/05/21 00:49:56;;;;;;;;;;;;;;;;;;1044271;28;3977;-53
2022/05/21 00:50:28;;;;;;;;;;;;;;;;;;1045396;28;3048;-54
2022/05/21 00:51:00;;;;;;;;;;;;;;;;;;1045000;28;3882;-54
2022/05/21 00:51:32;;;;;;;;;;;;;;;;;;1044671;28;3066;-54
2022/05/21 00:52:10;;;;;;;;;;;;;;;;;;1043008;28;4257;-54
2022/05/21 00:52:41;;;;;;;;;;;;;;;;;;1042953;28;3901;-54
2022/05/21 00:53:11;;;;;;;;;;;;;;;;;;1047279;28;1607;-55
2022/05/21 00:53:42;;;;;;;;;;;;;;;;;;1045027;28;3920;-53
2022/05/21 00:54:13;;;;;;;;;;;;;;;;;;1046015;28;3272;-54
2022/05/21 00:54:46;;;;;;;;;;;;;;;;;;1045165;28;4024;-53
2022/05/21 00:55:19;;;;;;;;;;;;;;;;;;1045521;28;3962;-50
2022/05/21 00:55:50;;;;;;;;;;;;;;;;;;1043495;28;3824;-56
2022/05/21 00:56:22;;;;;;;;;;;;;;;;;;1046459;28;1525;-53
2022/05/21 00:56:56;;;;;;;;;;;;;;;;;;1044324;28;4073;-54
2022/05/21 00:57:28;;;;;;;;;;;;;;;;;;1044247;28;3707;-53
2022/05/21 00:59:51;;;;;;;;;;;;;;;;;;1045037;28;4041;-56
2022/05/21 01:00:22;;;;;;;;;;;;;;;;;;1045349;28;3759;-53
2022/05/21 01:00:53;;;;;;;;;;;;;;;;;;1045741;28;4166;-55
2022/05/21 01:01:24;;;;;;;;;;;;;;;;;;1046535;28;1126;-53
2022/05/21 01:01:56;;;;;;;;;;;;;;;;;;1044961;28;4183;-53
2022/05/21 01:02:33;;;;;;;;;;;;;;;;;;1045342;28;3720;-55
2022/05/21 01:03:03;;;;;;;;;;;;;;;;;;1043704;28;4214;-53
2022/05/21 01:03:34;;;;;;;;;;;;;;;;;;1043376;28;4113;-53
2022/05/21 01:04:04;;;;;;;;;;;;;;;;;;1044920;28;3122;-53
2022/05/21 01:04:35;;;;;;;;;;;;;;;;;;1045931;28;4003;-50
2022/05/21 01:05:07;;;;;;;;;;;;;;;;;;1046268;28;3683;-52
2022/05/21 01:05:38;;;;;;;;;;;;;;;;;;1045372;28;4064;-52
2022/05/21 01:06:09;;;;;;;;;;;;;;;;;;1045717;28;3497;-51
2022/05/21 01:06:40;;;;;;;;;;;;;;;;;;1043959;28;3943;-54
2022/05/21 01:07:12;;;;;;;;;;;;;;;;;;1045094;28;3221;-55
2022/05/21 01:07:43;;;;;;;;;;;;;;;;;;1043787;28;4205;-51
2022/05/21 01:08:14;;;;;;;;;;;;;;;;;;1045303;28;3049;-52
2022/05/21 01:08:44;;;;;;;;;;;;;;;;;;1044066;28;3937;-54
2022/05/21 01:09:14;;;;;;;;;;;;;;;;;;1044549;28;4492;-54
2022/05/21 01:09:50;;;;;;;;;;;;;;;;;;1043300;28;4165;-55
2022/05/21 01:10:21;;;;;;;;;;;;;;;;;;1046032;28;3882;-55
2022/05/21 01:10:54;;;;;;;;;;;;;;;;;;1043911;28;4085;-50
2022/05/21 01:11:24;;;;;;;;;;;;;;;;;;1045749;28;3870;-53
2022/05/21 01:11:55;;;;;;;;;;;;;;;;;;1044671;28;4143;-57
2022/05/21 01:12:28;;;;;;;;;;;;;;;;;;1040450;28;1405;-53
2022/05/21 01:12:59;;;;;;;;;;;;;;;;;;1038762;28;4080;-55
2022/05/21 01:13:32;;;;;;;;;;;;;;;;;;1039704;28;3964;-54
2022/05/21 01:14:03;;;;;;;;;;;;;;;;;;1039851;28;4226;-53
2022/05/21 01:14:33;;;;;;;;;;;;;;;;;;1045106;28;3892;-55
2022/05/21 01:15:06;;;;;;;;;;;;;;;;;;1045521;28;3997;-54
2022/05/21 01:15:37;;;;;;;;;;;;;;;;;;1045546;28;4070;-51
2022/05/21 01:16:08;;;;;;;;;;;;;;;;;;1045497;28;3818;-54
2022/05/21 01:16:45;;;;;;;;;;;;;;;;;;1045084;28;3919;-53
2022/05/21 01:17:17;;;;;;;;;;;;;;;;;;1042268;28;1377;-54
2022/05/21 01:17:47;;;;;;;;;;;;;;;;;;1039479;28;4263;-51
2022/05/21 01:18:17;;;;;;;;;;;;;;;;;;1041851;28;1754;-53
2022/05/21 01:18:47;;;;;;;;;;;;;;;;;;1040719;28;3971;-51
2022/05/21 01:19:18;;;;;;;;;;;;;;;;;;1045062;28;3830;-52
2022/05/21 01:19:58;;;;;;;;;;;;;;;;;;1044416;28;3963;-51
2022/05/21 01:20:39;;;;;;;;;;;;;;;;;;1046685;28;1533;-54
2022/05/21 01:21:09;;;;;;;;;;;;;;;;;;1045026;28;4030;-53
2022/05/21 01:21:40;;;;;;;;;;;;;;;;;;1045260;28;4300;-51
2022/05/21 01:22:10;;;;;;;;;;;;;;;;;;1045538;28;2640;-55
2022/05/21 01:22:45;;;;;;;;;;;;;;;;;;1044609;28;4094;-55
2022/05/21 01:23:16;;;;;;;;;;;;;;;;;;1044246;28;3822;-54
2022/05/21 01:23:46;;;;;;;;;;;;;;;;;;1044217;28;3881;-56
2022/05/21 01:24:16;;;;;;;;;;;;;;;;;;1046353;28;1729;-53
2022/05/21 01:24:46;;;;;;;;;;;;;;;;;;1040735;28;4654;-56
2022/05/21 01:25:19;;;;;;;;;;;;;;;;;;1041613;28;2768;-52
2022/05/21 01:25:50;;;;;;;;;;;;;;;;;;1040512;28;3997;-54
2022/05/21 01:26:21;;;;;;;;;;;;;;;;;;1042737;28;1500;-54
2022/05/21 01:26:51;;;;;;;;;;;;;;;;;;1040789;28;3991;-54
2022/05/21 01:27:22;;;;;;;;;;;;;;;;;;1040631;28;3832;-57
2022/05/21 01:27:56;;;;;;;;;;;;;;;;;;1043074;28;4220;-52
2022/05/21 01:28:30;;;;;;;;;;;;;;;;;;1046226;28;2089;-51
2022/05/21 01:29:03;;;;;;;;;;;;;;;;;;1043796;28;4142;-55
2022/05/21 01:29:34;;;;;;;;;;;;;;;;;;1044967;28;4083;-51
2022/05/21 01:30:06;;;;;;;;;;;;;;;;;;1046051;28;4090;-56
2022/05/21 01:30:47;;;;;;;;;;;;;;;;;;1045167;28;3928;-53
2022/05/21 01:31:18;;;;;;;;;;;;;;;;;;1046193;28;1510;-55
2022/05/21 01:31:50;;;;;;;;;;;;;;;;;;1045373;28;4270;-55
2022/05/21 01:32:22;;;;;;;;;;;;;;;;;;1046176;28;1907;-53
2022/05/21 01:32:52;;;;;;;;;;;;;;;;;;1044054;28;3967;-53
2022/05/21 01:33:24;;;;;;;;;;;;;;;;;;1045027;28;4159;-55
2022/05/21 01:33:54;;;;;;;;;;;;;;;;;;1043666;28;4074;-55
2022/05/21 01:34:26;;;;;;;;;;;;;;;;;;1046417;28;1746;-54
2022/05/21 01:34:57;;;;;;;;;;;;;;;;;;1044231;28;4005;-52
2022/05/21 01:35:27;;;;;;;;;;;;;;;;;;1046421;28;1415;-52
2022/05/21 01:35:58;;;;;;;;;;;;;;;;;;1045956;28;3861;-52
2022/05/21 01:36:28;;;;;;;;;;;;;;;;;;1044702;28;3540;-56
2022/05/21 01:36:58;;;;;;;;;;;;;;;;;;1045020;28;4019;-55
2022/05/21 01:37:29;;;;;;;;;;;;;;;;;;1045831;28;1495;-55
2022/05/21 01:38:00;;;;;;;;;;;;;;;;;;1043456;28;3898;-54
2022/05/21 01:38:30;;;;;;;;;;;;;;;;;;1040102;28;3611;-55
2022/05/21 01:39:00;;;;;;;;;;;;;;;;;;1038341;28;4010;-51
2022/05/21 01:39:44;;;;;;;;;;;;;;;;;;1036809;28;3688;-50
2022/05/21 01:40:22;;;;;;;;;;;;;;;;;;1035298;28;4049;-56
2022/05/21 01:40:52;;;;;;;;;;;;;;;;;;1035400;28;3814;-55
2022/05/21 01:41:22;;;;;;;;;;;;;;;;;;1038485;28;1602;-56
2022/05/21 01:41:53;;;;;;;;;;;;;;;;;;1036832;28;4030;-53
2022/05/21 01:42:23;;;;;;;;;;;;;;;;;;1037976;28;1718;-51
2022/05/21 01:44:40;;;;;;;;;;;;;;;;;;1036555;28;2622;-55
2022/05/21 01:45:10;;;;;;;;;;;;;;;;;;1036789;28;3867;-52
2022/05/21 01:45:41;;;;;;;;;;;;;;;;;;1035112;28;3936;-54
2022/05/21 01:46:12;;;;;;;;;;;;;;;;;;1037052;28;2890;-56
2022/05/21 01:46:42;;;;;;;;;;;;;;;;;;1037174;28;4066;-53
2022/05/21 01:47:13;;;;;;;;;;;;;;;;;;1036667;28;3691;-52
2022/05/21 01:47:44;;;;;;;;;;;;;;;;;;1036369;28;3895;-52
2022/05/21 01:48:19;;;;;;;;;;;;;;;;;;1037133;28;2930;-51
2022/05/21 01:48:49;;;;;;;;;;;;;;;;;;1036338;28;4136;-55
2022/05/21 01:49:19;;;;;;;;;;;;;;;;;;1037471;28;2016;-57
2022/05/21 01:49:51;;;;;;;;;;;;;;;;;;1037321;28;3987;-55
2022/05/21 01:50:21;;;;;;;;;;;;;;;;;;1036073;28;3021;-54
2022/05/21 01:50:53;;;;;;;;;;;;;;;;;;1036473;28;4041;-52
2022/05/21 01:51:23;;;;;;;;;;;;;;;;;;1040886;28;3690;-54
2022/05/21 01:51:54;;;;;;;;;;;;;;;;;;1040541;28;4019;-56
2022/05/21 01:52:25;;;;;;;;;;;;;;;;;;1041436;28;1964;-51
2022/05/21 01:52:55;;;;;;;;;;;;;;;;;;1040552;28;4029;-53
2022/05/21 01:53:25;;;;;;;;;;;;;;;;;;1036496;28;3877;-51
2022/05/21 01:53:56;;;;;;;;;;;;;;;;;;1036023;28;4084;-54
2022/05/21 01:54:26;;;;;;;;;;;;;;;;;;1037470;28;2980;-55
2022/05/21 01:54:56;;;;;;;;;;;;;;;;;;1035190;28;3974;-54
2022/05/21 01:55:27;;;;;;;;;;;;;;;;;;1037347;28;2456;-53
2022/05/21 01:55:57;;;;;;;;;;;;;;;;;;1036407;28;3814;-54
2022/05/21 01:56:28;;;;;;;;;;;;;;;;;;1037136;28;2648;-52
2022/05/21 01:56:58;;;;;;;;;;;;;;;;;;1036645;28;4156;-55
2022/05/21 01:57:29;;;;;;;;;;;;;;;;;;1036791;28;3455;-51
2022/05/21 01:57:59;;;;;;;;;;;;;;;;;;1036715;28;4125;-53
2022/05/21 01:58:29;;;;;;;;;;;;;;;;;;1035948;28;4008;-55
2022/05/21 01:58:59;;;;;;;;;;;;;;;;;;1036943;28;4390;-54
2022/05/21 01:59:30;;;;;;;;;;;;;;;;;;1037999;28;1944;-55
2022/05/21 02:00:00;;;;;;;;;;;;;;;;;;1036522;28;4002;-55
2022/05/21 02:00:31;;;;;;;;;;;;;;;;;;1038454;28;1692;-56
2022/05/21 02:01:02;;;;;;;;;;;;;;;;;;1035131;28;4586;-53
2022/05/21 02:01:32;;;;;;;;;;;;;;;;;;1037476;28;3100;-53
2022/05/21 02:02:02;;;;;;;;;;;;;;;;;;1036679;28;3990;-53
2022/05/21 02:02:33;;;;;;;;;;;;;;;;;;1036844;28;3067;-53
2022/05/21 02:03:04;;;;;;;;;;;;;;;;;;1037357;28;3962;-55
2022/05/21 02:03:34;;;;;;;;;;;;;;;;;;1037192;28;4255;-52
2022/05/21 02:04:04;;;;;;;;;;;;;;;;;;1037303;28;3731;-55
2022/05/21 02:04:36;;;;;;;;;;;;;;;;;;1036411;28;4054;-53
2022/05/21 02:05:06;;;;;;;;;;;;;;;;;;1038314;28;4399;-56
2022/05/21 02:05:37;;;;;;;;;;;;;;;;;;1036540;28;4054;-55
2022/05/21 02:06:08;;;;;;;;;;;;;;;;;;1037834;28;4531;-52
2022/05/21 02:06:38;;;;;;;;;;;;;;;;;;1036675;28;3906;-52
2022/05/21 02:07:08;;;;;;;;;;;;;;;;;;1037425;28;2868;-54
2022/05/21 02:07:38;;;;;;;;;;;;;;;;;;1036840;28;3902;-53
2022/05/21 02:08:09;;;;;;;;;;;;;;;;;;1036236;28;5079;-52
2022/05/21 02:08:39;;;;;;;;;;;;;;;;;;1037044;28;3873;-55
2022/05/21 02:09:10;;;;;;;;;;;;;;;;;;1036491;28;3569;-52
2022/05/21 02:09:41;;;;;;;;;;;;;;;;;;1036451;28;4065;-53
2022/05/21 02:10:11;;;;;;;;;;;;;;;;;;1037116;28;3981;-53
2022/05/21 02:10:41;;;;;;;;;;;;;;;;;;1037052;28;3995;-54
2022/05/21 02:11:12;;;;;;;;;;;;;;;;;;1040929;28;1711;-54
2022/05/21 02:11:43;;;;;;;;;;;;;;;;;;1040775;28;4050;-53
2022/05/21 02:12:16;;;;;;;;;;;;;;;;;;1040225;28;3925;-53
2022/05/21 02:12:46;;;;;;;;;;;;;;;;;;1039428;28;4112;-55
2022/05/21 02:13:18;;;;;;;;;;;;;;;;;;1041920;28;1633;-54
2022/05/21 02:13:48;;;;;;;;;;;;;;;;;;1038110;28;4040;-53
2022/05/21 02:14:19;;;;;;;;;;;;;;;;;;1038155;28;1599;-52
2022/05/21 02:14:49;;;;;;;;;;;;;;;;;;1036559;28;3957;-54
2022/05/21 02:15:19;;;;;;;;;;;;;;;;;;1037556;28;1861;-54
2022/05/21 02:15:49;;;;;;;;;;;;;;;;;;1035414;28;3890;-53
2022/05/21 02:16:28;;;;;;;;;;;;;;;;;;1036727;28;2651;-52
2022/05/21 02:16:58;;;;;;;;;;;;;;;;;;1036796;28;4026;-56
2022/05/21 02:17:28;;;;;;;;;;;;;;;;;;1035957;28;3894;-54
2022/05/21 02:17:58;;;;;;;;;;;;;;;;;;1035531;28;4074;-53
2022/05/21 02:18:29;;;;;;;;;;;;;;;;;;1037618;28;1734;-53
2022/05/21 02:19:01;;;;;;;;;;;;;;;;;;1036372;28;4026;-52
2022/05/21 02:19:33;;;;;;;;;;;;;;;;;;1037687;28;1968;-56
2022/05/21 02:20:03;;;;;;;;;;;;;;;;;;1035203;28;3977;-55
2022/05/21 02:20:34;;;;;;;;;;;;;;;;;;1037438;28;4152;-55
2022/05/21 02:21:04;;;;;;;;;;;;;;;;;;1037054;28;2898;-54
2022/05/21 02:21:36;;;;;;;;;;;;;;;;;;1035541;28;4143;-55
2022/05/21 02:22:06;;;;;;;;;;;;;;;;;;1037188;28;4002;-54
2022/05/21 02:22:36;;;;;;;;;;;;;;;;;;1037533;28;4073;-54
2022/05/21 02:23:07;;;;;;;;;;;;;;;;;;1036874;28;3649;-51
2022/05/21 02:23:58;;;;;;;;;;;;;;;;;;1036120;28;4205;-51
2022/05/21 02:24:36;;;;;;;;;;;;;;;;;;1034955;28;3910;-55
2022/05/21 02:25:07;;;;;;;;;;;;;;;;;;1038041;28;3405;-53
2022/05/21 02:25:37;;;;;;;;;;;;;;;;;;1035559;28;3955;-52
2022/05/21 02:26:08;;;;;;;;;;;;;;;;;;1036915;28;3599;-56
2022/05/21 02:26:39;;;;;;;;;;;;;;;;;;1035138;28;4330;-54
2022/05/21 02:27:10;;;;;;;;;;;;;;;;;;1036721;28;3800;-53
2022/05/21 02:27:40;;;;;;;;;;;;;;;;;;1036275;28;4654;-55
2022/05/21 02:28:12;;;;;;;;;;;;;;;;;;1036976;28;3068;-54
2022/05/21 02:28:43;;;;;;;;;;;;;;;;;;1035394;28;4315;-54
2022/05/21 02:29:13;;;;;;;;;;;;;;;;;;1037558;28;1844;-55
2022/05/21 02:29:43;;;;;;;;;;;;;;;;;;1036989;28;4145;-56
2022/05/21 02:30:14;;;;;;;;;;;;;;;;;;1037541;28;1826;-54
2022/05/21 02:30:44;;;;;;;;;;;;;;;;;;1040487;28;4102;-55
2022/05/21 02:31:15;;;;;;;;;;;;;;;;;;1040393;28;3692;-53
2022/05/21 02:31:45;;;;;;;;;;;;;;;;;;1040523;28;4099;-54
2022/05/21 02:32:16;;;;;;;;;;;;;;;;;;1041013;28;3804;-53
2022/05/21 02:32:47;;;;;;;;;;;;;;;;;;1040204;28;4167;-56
2022/05/21 02:33:17;;;;;;;;;;;;;;;;;;1041703;28;2863;-55
2022/05/21 02:33:48;;;;;;;;;;;;;;;;;;1039841;28;3908;-50
2022/05/21 02:34:18;;;;;;;;;;;;;;;;;;1042201;28;4201;-55
2022/05/21 02:34:48;;;;;;;;;;;;;;;;;;1037755;28;4041;-52
2022/05/21 02:35:18;;;;;;;;;;;;;;;;;;1040656;28;3877;-52
2022/05/21 02:35:49;;;;;;;;;;;;;;;;;;1035648;28;3896;-53
2022/05/21 02:39:25;;;;;;;;;;;;;;;;;;1036128;28;3762;-52
2022/05/21 02:39:50;;;;;;;;;;;;;;;;;;1038859;28;4088;-54
2022/05/21 02:40:27;;;;;;;;;;;;;;;;;;1037068;28;1939;-54
2022/05/21 02:40:58;;;;;;;;;;;;;;;;;;1036755;28;4050;-52
2022/05/21 02:41:28;;;;;;;;;;;;;;;;;;1038393;28;1708;-53
2022/05/21 02:41:59;;;;;;;;;;;;;;;;;;1034567;28;4013;-54
2022/05/21 02:42:48;;;;;;;;;;;;;;;;;;1037812;28;2644;-51
2022/05/21 02:43:18;;;;;;;;;;;;;;;;;;1036171;28;3920;-55
2022/05/21 02:43:48;;;;;;;;;;;;;;;;;;1036089;28;4595;-55
2022/05/21 02:44:19;;;;;;;;;;;;;;;;;;1037143;28;2243;-52
2022/05/21 02:44:49;;;;;;;;;;;;;;;;;;1036040;28;4005;-56
2022/05/21 02:45:23;;;;;;;;;;;;;;;;;;1036660;28;2669;-50
2022/05/21 02:45:54;;;;;;;;;;;;;;;;;;1036734;28;3829;-54
2022/05/21 02:46:24;;;;;;;;;;;;;;;;;;1037113;28;3003;-55
2022/05/21 02:46:55;;;;;;;;;;;;;;;;;;1036620;28;4007;-53
2022/05/21 02:47:26;;;;;;;;;;;;;;;;;;1037236;28;2864;-54
2022/05/21 02:47:56;;;;;;;;;;;;;;;;;;1035364;28;4110;-55
2022/05/21 02:48:28;;;;;;;;;;;;;;;;;;1036977;28;3805;-55
2022/05/21 02:48:58;;;;;;;;;;;;;;;;;;1035477;28;4045;-54
2022/05/21 02:49:28;;;;;;;;;;;;;;;;;;1037697;28;2904;-50
2022/05/21 02:49:59;;;;;;;;;;;;;;;;;;1034581;28;4238;-52
2022/05/21 02:50:34;;;;;;;;;;;;;;;;;;1037563;28;2518;-54
2022/05/21 02:51:04;;;;;;;;;;;;;;;;;;1035568;28;4040;-55
2022/05/21 02:51:34;;;;;;;;;;;;;;;;;;1036804;28;3925;-51
2022/05/21 02:52:05;;;;;;;;;;;;;;;;;;1033318;28;3914;-55
2022/05/21 02:52:36;;;;;;;;;;;;;;;;;;1032549;28;4101;-52
2022/05/21 02:53:07;;;;;;;;;;;;;;;;;;1033652;28;4012;-54
2022/05/21 02:53:38;;;;;;;;;;;;;;;;;;1032740;28;4427;-55
2022/05/21 02:54:09;;;;;;;;;;;;;;;;;;1035707;28;4428;-55
2022/05/21 02:54:39;;;;;;;;;;;;;;;;;;1034583;28;4084;-52
2022/05/21 02:55:11;;;;;;;;;;;;;;;;;;1036112;28;1184;-52
2022/05/21 02:55:41;;;;;;;;;;;;;;;;;;1034396;28;3968;-52
2022/05/21 02:56:14;;;;;;;;;;;;;;;;;;1037297;28;2841;-53
2022/05/21 02:56:45;;;;;;;;;;;;;;;;;;1035584;28;4187;-51
2022/05/21 02:57:15;;;;;;;;;;;;;;;;;;1036078;28;2841;-61
2022/05/21 02:57:46;;;;;;;;;;;;;;;;;;1036867;28;4067;-54
2022/05/21 02:58:16;;;;;;;;;;;;;;;;;;1041114;28;1791;-56
2022/05/21 02:58:47;;;;;;;;;;;;;;;;;;1040557;28;4061;-54
2022/05/21 02:59:17;;;;;;;;;;;;;;;;;;1039525;28;3409;-53
2022/05/21 02:59:49;;;;;;;;;;;;;;;;;;1039942;28;4154;-55
2022/05/21 03:00:20;;;;;;;;;;;;;;;;;;1037720;28;1762;-56
2022/05/21 03:00:51;;;;;;;;;;;;;;;;;;1035446;28;3913;-56
2022/05/21 03:01:21;;;;;;;;;;;;;;;;;;1037350;28;2719;-53
2022/05/21 03:01:51;;;;;;;;;;;;;;;;;;1036940;28;4243;-54
2022/05/21 03:02:21;;;;;;;;;;;;;;;;;;1041380;28;1909;-55
2022/05/21 03:02:52;;;;;;;;;;;;;;;;;;1039728;28;4166;-55
2022/05/21 03:03:22;;;;;;;;;;;;;;;;;;1042105;28;1244;-55
2022/05/21 03:03:52;;;;;;;;;;;;;;;;;;1038987;28;4259;-55
2022/05/21 03:04:23;;;;;;;;;;;;;;;;;;1037719;28;1508;-56
2022/05/21 03:04:53;;;;;;;;;;;;;;;;;;1037067;28;3903;-55
2022/05/21 03:05:25;;;;;;;;;;;;;;;;;;1037745;28;1755;-54
2022/05/21 03:05:55;;;;;;;;;;;;;;;;;;1037126;28;4256;-56
2022/05/21 03:06:25;;;;;;;;;;;;;;;;;;1037210;28;2872;-54
2022/05/21 03:06:56;;;;;;;;;;;;;;;;;;1035490;28;3957;-54
2022/05/21 03:07:26;;;;;;;;;;;;;;;;;;1036900;28;3818;-54
2022/05/21 03:07:58;;;;;;;;;;;;;;;;;;1036291;28;4196;-55
2022/05/21 03:10:22;;;;;;;;;;;;;;;;;;1036456;28;3739;-55
2022/05/21 03:10:53;;;;;;;;;;;;;;;;;;1035519;28;4974;-56
2022/05/21 03:11:23;;;;;;;;;;;;;;;;;;1037627;28;3614;-55
2022/05/21 03:11:54;;;;;;;;;;;;;;;;;;1035309;28;4150;-53
2022/05/21 03:12:24;;;;;;;;;;;;;;;;;;1036535;28;3829;-52
2022/05/21 03:12:55;;;;;;;;;;;;;;;;;;1037002;28;3947;-52
2022/05/21 03:13:25;;;;;;;;;;;;;;;;;;1037197;28;1612;-55
2022/05/21 03:13:55;;;;;;;;;;;;;;;;;;1037189;28;3969;-54
2022/05/21 03:14:26;;;;;;;;;;;;;;;;;;1036917;28;2783;-54
2022/05/21 03:15:03;;;;;;;;;;;;;;;;;;1037056;28;3755;-54
2022/05/21 03:15:35;;;;;;;;;;;;;;;;;;1037113;28;4266;-54
2022/05/21 03:16:06;;;;;;;;;;;;;;;;;;1037313;28;3782;-58
2022/05/21 03:16:36;;;;;;;;;;;;;;;;;;1034633;28;3835;-55
2022/05/21 03:17:06;;;;;;;;;;;;;;;;;;1034492;28;2593;-52
2022/05/21 03:17:36;;;;;;;;;;;;;;;;;;1033929;28;3864;-54
2022/05/21 03:18:08;;;;;;;;;;;;;;;;;;1034061;28;4104;-54
2022/05/21 03:18:39;;;;;;;;;;;;;;;;;;1035407;28;4068;-55
2022/05/21 03:19:09;;;;;;;;;;;;;;;;;;1037356;28;1270;-53
2022/05/21 03:19:39;;;;;;;;;;;;;;;;;;1036971;28;4184;-50
2022/05/21 03:20:13;;;;;;;;;;;;;;;;;;1037676;28;2942;-54
2022/05/21 03:20:43;;;;;;;;;;;;;;;;;;1036221;28;4233;-51
2022/05/21 03:21:14;;;;;;;;;;;;;;;;;;1038172;28;1571;-56
2022/05/21 03:21:44;;;;;;;;;;;;;;;;;;1036682;28;4076;-51
2022/05/21 03:22:15;;;;;;;;;;;;;;;;;;1036960;28;2996;-53
2022/05/21 03:22:45;;;;;;;;;;;;;;;;;;1036566;28;4061;-55
2022/05/21 03:23:15;;;;;;;;;;;;;;;;;;1037345;28;1683;-54
2022/05/21 03:23:46;;;;;;;;;;;;;;;;;;1035710;28;3878;-53
2022/05/21 03:24:16;;;;;;;;;;;;;;;;;;1036638;28;4052;-55
2022/05/21 03:24:46;;;;;;;;;;;;;;;;;;1035387;28;3966;-56
2022/05/21 03:25:17;;;;;;;;;;;;;;;;;;1037160;28;3614;-55
2022/05/21 03:25:47;;;;;;;;;;;;;;;;;;1035324;28;4074;-52
2022/05/21 03:26:17;;;;;;;;;;;;;;;;;;1036927;28;2917;-53
2022/05/21 03:26:48;;;;;;;;;;;;;;;;;;1038713;28;4245;-52
2022/05/21 03:27:18;;;;;;;;;;;;;;;;;;1040938;28;3832;-52
2022/05/21 03:27:48;;;;;;;;;;;;;;;;;;1039828;28;4445;-53
2022/05/21 03:28:19;;;;;;;;;;;;;;;;;;1041726;28;1648;-53
2022/05/21 03:28:49;;;;;;;;;;;;;;;;;;1036064;28;4073;-53
2022/05/21 03:29:20;;;;;;;;;;;;;;;;;;1039501;28;1679;-53
2022/05/21 03:29:50;;;;;;;;;;;;;;;;;;1035625;28;4268;-57
2022/05/21 03:30:22;;;;;;;;;;;;;;;;;;1036266;28;3639;-55
2022/05/21 03:30:52;;;;;;;;;;;;;;;;;;1035813;28;3869;-55
2022/05/21 03:31:22;;;;;;;;;;;;;;;;;;1037491;28;4094;-58
2022/05/21 03:31:53;;;;;;;;;;;;;;;;;;1035672;28;4081;-56
2022/05/21 03:32:23;;;;;;;;;;;;;;;;;;1037527;28;3903;-54
2022/05/21 03:32:54;;;;;;;;;;;;;;;;;;1036033;28;3907;-55
2022/05/21 03:33:24;;;;;;;;;;;;;;;;;;1037555;28;2032;-53
2022/05/21 03:33:55;;;;;;;;;;;;;;;;;;1036871;28;3880;-55
2022/05/21 03:34:25;;;;;;;;;;;;;;;;;;1037654;28;1890;-56
2022/05/21 03:34:55;;;;;;;;;;;;;;;;;;1036000;28;3893;-56
2022/05/21 03:35:26;;;;;;;;;;;;;;;;;;1037815;28;1945;-54
2022/05/21 03:35:56;;;;;;;;;;;;;;;;;;1037162;28;3866;-52
2022/05/21 03:36:27;;;;;;;;;;;;;;;;;;1036811;28;3006;-55
2022/05/21 03:36:57;;;;;;;;;;;;;;;;;;1034897;28;4009;-55
2022/05/21 03:37:27;;;;;;;;;;;;;;;;;;1037297;28;2961;-56
2022/05/21 03:37:57;;;;;;;;;;;;;;;;;;1036360;28;4123;-55
2022/05/21 03:38:28;;;;;;;;;;;;;;;;;;1037272;28;2805;-57
2022/05/21 03:38:59;;;;;;;;;;;;;;;;;;1034699;28;3911;-56
2022/05/21 03:39:42;;;;;;;;;;;;;;;;;;1038976;28;3963;-56
2022/05/21 03:40:21;;;;;;;;;;;;;;;;;;1044997;28;3985;-55
2022/05/21 03:40:51;;;;;;;;;;;;;;;;;;1043556;28;4068;-52
2022/05/21 03:41:22;;;;;;;;;;;;;;;;;;1043339;28;3792;-54
2022/05/21 03:41:52;;;;;;;;;;;;;;;;;;1040056;28;4108;-53
2022/05/21 03:42:22;;;;;;;;;;;;;;;;;;1041999;28;3956;-55
2022/05/21 03:42:52;;;;;;;;;;;;;;;;;;1040640;28;4134;-56
2022/05/21 03:43:23;;;;;;;;;;;;;;;;;;1041706;28;1956;-56
2022/05/21 03:43:55;;;;;;;;;;;;;;;;;;1044881;28;3840;-54
2022/05/21 03:44:28;;;;;;;;;;;;;;;;;;1045899;28;2911;-57
2022/05/21 03:44:58;;;;;;;;;;;;;;;;;;1043663;28;3973;-55
2022/05/21 03:45:30;;;;;;;;;;;;;;;;;;1041845;28;1717;-55
2022/05/21 03:46:00;;;;;;;;;;;;;;;;;;1040119;28;3924;-55
2022/05/21 03:46:31;;;;;;;;;;;;;;;;;;1041396;28;1774;-55
2022/05/21 03:47:02;;;;;;;;;;;;;;;;;;1040912;28;3842;-56